createdAt,value
2023-04-25T00:04:28.957Z,22.3
2023-04-25T00:09:29.028Z,22.3
2023-04-25T00:14:32.209Z,22.2
2023-04-25T00:19:31.953Z,22.2
2023-04-25T00:24:32.434Z,22.2
2023-04-25T00:29:32.806Z,22.2
2023-04-25T00:34:36.269Z,22.2
2023-04-25T00:39:36.248Z,22.2
2023-04-25T00:44:39.578Z,22.2
2023-04-25T00:49:42.364Z,22.1
2023-04-25T00:54:42.305Z,22.1
2023-04-25T00:59:42.652Z,22.1
2023-04-25T01:04:43.016Z,22.1
2023-04-25T01:09:43.469Z,22.1
2023-04-25T01:14:43.929Z,22.1
2023-04-25T01:19:47.181Z,22.1
2023-04-25T01:24:50.164Z,22.1
2023-04-25T01:29:52.844Z,22.1
2023-04-25T01:34:54.650Z,22.1
2023-04-25T01:39:57.606Z,22.1
2023-04-25T01:44:57.601Z,22.1
2023-04-25T01:49:58.300Z,22.1
2023-04-25T01:54:58.909Z,22
2023-04-25T01:59:59.176Z,22
2023-04-25T02:05:02.559Z,22
2023-04-25T02:10:05.271Z,22
2023-04-25T02:15:08.149Z,22
2023-04-25T02:20:10.885Z,22
2023-04-25T02:25:11.047Z,22
2023-04-25T02:30:11.532Z,22
2023-04-25T02:35:12.011Z,22
2023-04-25T02:40:15.354Z,22
2023-04-25T02:45:15.130Z,21.9
2023-04-25T02:50:15.828Z,22
2023-04-25T02:55:17.041Z,22
2023-04-25T03:00:17.509Z,22
2023-04-25T03:05:17.912Z,22
2023-04-25T03:10:18.389Z,21.9
2023-04-25T03:15:18.841Z,21.9
2023-04-25T03:20:21.958Z,21.9
2023-04-25T03:25:21.748Z,21.9
2023-04-25T03:30:22.338Z,21.9
2023-04-25T03:35:26.177Z,21.9
2023-04-25T03:40:25.659Z,21.9
2023-04-25T03:45:26.046Z,21.9
2023-04-25T03:50:26.263Z,21.9
2023-04-25T03:55:27.052Z,21.9
2023-04-25T04:00:27.283Z,21.9
2023-04-25T04:05:27.943Z,21.9
2023-04-25T04:10:29.223Z,21.9
2023-04-25T04:15:29.635Z,21.9
2023-04-25T04:20:29.990Z,21.9
2023-04-25T04:25:33.257Z,21.9
2023-04-25T04:30:33.174Z,21.9
2023-04-25T04:35:36.497Z,21.9
2023-04-25T04:40:36.584Z,21.9
2023-04-25T04:45:37.411Z,21.9
2023-04-25T04:50:37.720Z,21.9
2023-04-25T04:55:41.010Z,21.9
2023-04-25T05:00:43.956Z,21.9
2023-04-25T05:05:44.027Z,21.9
2023-04-25T05:10:44.499Z,21.9
2023-04-25T05:15:47.705Z,21.9
2023-04-25T05:20:47.614Z,21.8
2023-04-25T05:25:48.189Z,21.8
2023-04-25T05:30:48.820Z,21.8
2023-04-25T05:35:51.165Z,21.8
2023-04-25T05:40:51.387Z,21.8
2023-04-25T05:45:54.769Z,21.8
2023-04-25T05:50:54.601Z,21.8
2023-04-25T05:55:54.966Z,21.8
2023-04-25T06:00:55.469Z,21.8
2023-04-25T06:05:56.168Z,21.8
2023-04-25T06:10:56.783Z,21.8
2023-04-25T06:15:59.983Z,21.8
2023-04-25T06:20:59.795Z,21.8
2023-04-25T06:26:00.441Z,21.8
2023-04-25T06:31:00.989Z,21.8
2023-04-25T06:36:04.280Z,21.8
2023-04-25T06:41:04.449Z,21.9
2023-04-25T06:46:05.002Z,21.9
2023-04-25T06:51:08.059Z,21.9
2023-04-25T06:56:08.094Z,22
2023-04-25T07:01:08.659Z,21.9
2023-04-25T07:06:09.151Z,21.9
2023-04-25T07:11:12.395Z,22
2023-04-25T07:16:12.430Z,21.9
2023-04-25T07:21:12.718Z,22
2023-04-25T07:26:13.114Z,21.9
2023-04-25T07:31:13.553Z,21.9
2023-04-25T07:36:16.547Z,21.9
2023-04-25T07:41:16.660Z,22
2023-04-25T07:46:17.249Z,22
2023-04-25T07:51:21.928Z,22
2023-04-25T07:56:21.814Z,22
2023-04-25T08:01:25.036Z,22
2023-04-25T08:06:27.846Z,22
2023-04-25T08:11:27.762Z,22
2023-04-25T08:16:31.463Z,22
2023-04-25T08:21:34.040Z,22.1
2023-04-25T08:26:35.270Z,22.1
2023-04-25T08:31:35.527Z,22.1
2023-04-25T08:36:40.007Z,22.1
2023-04-25T08:41:38.802Z,22.1
2023-04-25T08:46:42.185Z,22.1
2023-04-25T08:51:44.795Z,22.1
2023-04-25T08:56:44.813Z,22.1
2023-04-25T09:01:48.487Z,22.1
2023-04-25T09:06:50.765Z,22.2
2023-04-25T09:11:50.618Z,22.2
2023-04-25T09:16:51.101Z,22.2
2023-04-25T09:21:51.639Z,22.1
2023-04-25T09:26:51.995Z,22.2
2023-04-25T09:31:52.471Z,22.2
2023-04-25T09:36:55.932Z,22.2
2023-04-25T09:41:56.094Z,22.2
2023-04-25T09:46:59.290Z,22.2
2023-04-25T09:51:59.051Z,22.2
2023-04-25T09:57:02.166Z,22.2
2023-04-25T10:02:01.960Z,22.2
2023-04-25T10:07:02.636Z,22.2
2023-04-25T10:12:03.020Z,22.2
2023-04-25T10:17:03.537Z,22.2
2023-04-25T10:22:06.779Z,22.2
2023-04-25T10:27:07.621Z,22.2
2023-04-25T10:32:08.751Z,22.2
2023-04-25T10:37:09.173Z,22.2
2023-04-25T10:42:09.480Z,22.2
2023-04-25T10:47:10.081Z,22.2
2023-04-25T10:52:10.799Z,22.3
2023-04-25T10:57:11.477Z,22.3
2023-04-25T11:02:12.299Z,22.3
2023-04-25T11:07:15.521Z,22.3
2023-04-25T11:12:15.473Z,22.2
2023-04-25T11:17:16.244Z,22.3
2023-04-25T11:22:16.845Z,22.2
2023-04-25T11:27:19.156Z,22.3
2023-04-25T11:32:22.264Z,22.3
2023-04-25T11:37:24.625Z,22.3
2023-04-25T11:42:27.368Z,22.3
2023-04-25T11:47:30.215Z,22.3
2023-04-25T11:52:30.261Z,22.2
2023-04-25T11:57:31.019Z,22.3
2023-04-25T12:02:31.327Z,22.3
2023-04-25T12:07:31.995Z,22.3
2023-04-25T12:12:35.311Z,22.2
2023-04-25T12:17:39.988Z,22.3
2023-04-25T12:22:42.402Z,22.3
2023-04-25T12:27:37.238Z,22.3
2023-04-25T12:32:37.707Z,22.3
2023-04-25T12:37:37.969Z,22.3
2023-04-25T12:42:38.457Z,22.3
2023-04-25T12:47:38.718Z,22.3
2023-04-25T12:52:39.525Z,22.3
2023-04-25T12:57:42.881Z,22.3
2023-04-25T13:02:43.131Z,22.3
2023-04-25T13:07:46.511Z,22.3
2023-04-25T13:12:46.559Z,22.3
2023-04-25T13:17:47.030Z,22.3
2023-04-25T13:22:47.493Z,22.3
2023-04-25T13:27:50.698Z,22.3
2023-04-25T13:32:50.838Z,22.3
2023-04-25T13:37:51.303Z,22.3
2023-04-25T13:42:51.780Z,22.3
2023-04-25T13:47:52.253Z,22.3
2023-04-25T13:52:55.439Z,22.3
2023-04-25T13:57:58.269Z,22.3
2023-04-25T14:02:58.249Z,22.3
2023-04-25T14:08:00.262Z,22.3
2023-04-25T14:12:59.242Z,22.3
2023-04-25T14:18:02.725Z,22.3
2023-04-25T14:23:02.501Z,22.3
2023-04-25T14:28:02.847Z,22.4
2023-04-25T14:33:03.559Z,22.4
2023-04-25T14:38:08.454Z,22.4
2023-04-25T14:43:08.161Z,22.4
2023-04-25T14:48:08.685Z,22.4
2023-04-25T14:53:08.982Z,22.4
2023-04-25T14:58:09.728Z,22.5
2023-04-25T15:03:01.240Z,22.5
2023-04-25T15:08:01.171Z,22.5
2023-04-25T15:13:02.002Z,22.5
2023-04-25T15:18:02.472Z,22.5
2023-04-25T15:23:03.043Z,22.5
2023-04-25T15:28:03.758Z,22.5
2023-04-25T15:33:04.386Z,22.5
2023-04-25T15:38:04.729Z,22.5
2023-04-25T15:43:05.218Z,22.5
2023-04-25T15:48:08.274Z,22.5
2023-04-25T15:53:08.312Z,22.5
2023-04-25T15:58:10.692Z,22.5
2023-04-25T16:03:12.249Z,22.5
2023-04-25T16:08:15.058Z,22.5
2023-04-25T16:13:17.751Z,22.5
2023-04-25T16:18:17.746Z,22.5
2023-04-25T16:23:18.274Z,22.5
2023-04-25T16:28:21.538Z,22.5
2023-04-25T16:33:21.567Z,22.5
2023-04-25T16:38:22.171Z,22.5
2023-04-25T16:43:25.562Z,22.5
2023-04-25T16:48:37.353Z,22.5
2023-04-25T16:53:36.010Z,22.5
2023-04-25T16:58:36.257Z,22.6
2023-04-25T17:03:36.987Z,22.4
2023-04-25T17:08:41.818Z,22.6
2023-04-25T17:13:41.378Z,22.5
2023-04-25T17:18:42.123Z,22.5
2023-04-25T17:23:42.797Z,22.5
2023-04-25T17:28:43.433Z,22.5
2023-04-25T17:33:43.839Z,22.5
2023-04-25T17:38:44.527Z,22.5
2023-04-25T17:43:44.854Z,22.5
2023-04-25T17:48:45.409Z,22.5
2023-04-25T17:53:45.939Z,22.5
2023-04-25T17:58:48.441Z,22.5
2023-04-25T18:03:49.107Z,22.5
2023-04-25T18:08:52.222Z,22.5
2023-04-25T18:13:52.054Z,22.5
2023-04-25T18:18:52.947Z,22.5
2023-04-25T18:23:52.938Z,22.5
2023-04-25T18:28:53.841Z,22.5
2023-04-25T18:33:54.433Z,22.5
2023-04-25T18:38:56.102Z,22.4
2023-04-25T18:43:55.783Z,22.4
2023-04-25T18:48:55.773Z,22.4
2023-04-25T18:53:56.220Z,22.4
2023-04-25T18:58:56.563Z,22.3
2023-04-25T19:04:03.619Z,22.3
2023-04-25T19:09:01.403Z,22.3
2023-04-25T19:14:02.434Z,22.3
2023-04-25T19:19:02.616Z,22.2
2023-04-25T19:24:02.879Z,22.2
2023-04-25T19:29:03.445Z,22.2
2023-04-25T19:34:08.274Z,22.2
2023-04-25T19:39:08.162Z,22.2
2023-04-25T19:44:08.627Z,22.2
2023-04-25T19:49:09.332Z,22.2
2023-04-25T19:54:09.793Z,22.1
2023-04-25T19:59:09.864Z,22.1
2023-04-25T20:04:03.094Z,22.1
2023-04-25T20:09:03.692Z,22.1
2023-04-25T20:14:04.124Z,22.1
2023-04-25T20:19:05.138Z,22
2023-04-25T20:24:05.452Z,22
2023-04-25T20:29:06.052Z,22.1
2023-04-25T20:34:10.967Z,22.1
2023-04-25T20:39:11.672Z,22
2023-04-25T20:44:14.868Z,22
2023-04-25T20:49:17.605Z,22
2023-04-25T20:54:17.796Z,22
2023-04-25T20:59:18.084Z,22
2023-04-25T21:04:18.722Z,22
2023-04-25T21:09:19.951Z,22
2023-04-25T21:14:16.780Z,22
2023-04-25T21:19:19.362Z,22
2023-04-25T21:24:20.163Z,22
2023-04-25T21:29:20.825Z,21.9
2023-04-25T21:34:21.329Z,21.9
2023-04-25T21:39:25.509Z,21.9
2023-04-25T21:44:28.112Z,21.9
2023-04-25T21:49:31.591Z,21.9
2023-04-25T21:54:31.437Z,21.9
2023-04-25T21:59:31.884Z,21.9
2023-04-25T22:04:32.560Z,21.9
2023-04-25T22:09:44.067Z,21.8
2023-04-25T22:14:39.654Z,21.9
2023-04-25T22:19:39.756Z,21.9
2023-04-25T22:24:40.827Z,21.8
2023-04-25T22:29:41.109Z,21.8
2023-04-25T22:34:42.576Z,21.8
2023-04-25T22:39:45.576Z,21.8
2023-04-25T22:44:48.227Z,21.8
2023-04-25T22:49:48.501Z,21.8
2023-04-25T22:54:48.915Z,21.8
2023-04-25T22:59:52.272Z,21.7
2023-04-25T23:04:52.268Z,21.7
2023-04-25T23:09:52.886Z,21.7
2023-04-25T23:14:53.414Z,21.7
2023-04-25T23:19:53.968Z,21.8
2023-04-25T23:24:57.039Z,21.7
2023-04-25T23:29:57.102Z,21.7
2023-04-25T23:34:57.507Z,21.7
2023-04-25T23:39:57.884Z,21.7
2023-04-25T23:44:58.429Z,21.7
2023-04-25T23:49:58.994Z,21.7
2023-04-25T23:54:59.209Z,21.7
